Time;durP1;ratioP1;P1;durP2;ratioP2;P2;SDS_P1;SDS_P2;PMS_P1;PMS_P2;Temp;Humidity;BMP_temperature;BMP_pressure;BME280_temperature;BME280_humidity;BME280_pressure;Samples;Min_cycle;Max_cycle;Signal;HPM_P1;HPM_P2
2023/03/11 00:00:24;;;;;;;;;;;0.80;99.90;;;;;;5058530;28;20356;-92
2023/03/11 00:02:51;;;;;;;;;;;-0.50;99.90;;;;;;5068496;28;19983;-93
2023/03/11 00:05:20;;;;;;;;;;;1.10;99.90;;;;;;5035974;28;19925;-92
2023/03/11 00:07:45;;;;;;;;;;;-1.30;99.90;;;;;;5034584;28;19928;-94
2023/03/11 00:10:24;;;;;;;;;;;0.00;99.90;;;;;;5046417;28;20065;-93
2023/03/11 00:12:50;;;;;;;;;;;-0.30;99.90;;;;;;5039699;28;19925;-92
2023/03/11 00:15:16;;;;;;;;;;;2.40;99.90;;;;;;5029971;28;19984;-93
2023/03/11 00:17:42;;;;;;;;;;;0.00;99.90;;;;;;5061716;28;19924;-94
2023/03/11 00:20:15;;;;;;;;;;;-0.30;99.90;;;;;;5045686;28;19924;-92
2023/03/11 00:22:40;;;;;;;;;;;0.50;99.90;;;;;;5041019;28;19982;-92
2023/03/11 00:25:06;;;;;;;;;;;-0.40;99.90;;;;;;5036270;28;19932;-93
2023/03/11 00:27:32;;;;;;;;;;;-0.40;99.90;;;;;;5045344;28;20018;-92
2023/03/11 00:30:00;;;;;;;;;;;-0.30;99.90;;;;;;5045710;28;19936;-93
2023/03/11 00:32:26;;;;;;;;;;;-0.60;99.90;;;;;;5044046;28;19932;-93
2023/03/11 00:34:52;;;;;;;;;;;1.70;99.90;;;;;;5042430;28;19924;-94
2023/03/11 00:37:20;;;;;;;;;;;-0.40;99.90;;;;;;5032400;28;20169;-93
2023/03/11 00:39:46;;;;;;;;;;;1.30;99.90;;;;;;5065310;28;19976;-92
2023/03/11 00:42:14;;;;;;;;;;;2.20;99.90;;;;;;5058646;28;19913;-91
2023/03/11 00:44:41;;;;;;;;;;;-0.70;99.90;;;;;;5030606;28;19976;-94
2023/03/11 00:47:08;;;;;;;;;;;-0.80;99.90;;;;;;5045320;28;19932;-93
2023/03/11 00:49:36;;;;;;;;;;;-0.80;99.90;;;;;;5044806;28;19993;-93
2023/03/11 00:52:03;;;;;;;;;;;-0.90;99.90;;;;;;5056326;28;20262;-92
2023/03/11 00:54:28;;;;;;;;;;;-0.80;99.90;;;;;;5041381;28;19979;-92
2023/03/11 00:56:54;;;;;;;;;;;-0.60;99.90;;;;;;5037514;28;20327;-93
2023/03/11 00:59:19;;;;;;;;;;;-0.60;99.90;;;;;;5036020;28;19925;-92
2023/03/11 01:01:45;;;;;;;;;;;-0.60;99.90;;;;;;5035212;28;20000;-93
2023/03/11 01:04:14;;;;;;;;;;;-0.90;99.90;;;;;;5045403;28;19972;-93
2023/03/11 01:06:39;;;;;;;;;;;1.30;99.90;;;;;;5069438;28;20362;-93
2023/03/11 01:09:05;;;;;;;;;;;-1.00;99.90;;;;;;5037923;28;19925;-92
2023/03/11 01:11:31;;;;;;;;;;;-0.30;99.90;;;;;;5048887;28;19925;-92
2023/03/11 01:14:03;;;;;;;;;;;-0.50;99.90;;;;;;5045600;28;20287;-92
2023/03/11 01:16:28;;;;;;;;;;;-1.10;99.90;;;;;;5063969;28;19928;-93
2023/03/11 01:18:54;;;;;;;;;;;1.60;99.90;;;;;;5038506;28;19947;-93
2023/03/11 01:21:19;;;;;;;;;;;1.50;99.90;;;;;;5048804;28;19930;-93
2023/03/11 01:23:45;;;;;;;;;;;-0.90;99.90;;;;;;5053182;28;19929;-93
2023/03/11 01:26:11;;;;;;;;;;;-0.50;99.90;;;;;;5043267;28;20007;-94
2023/03/11 01:28:39;;;;;;;;;;;1.00;99.90;;;;;;5063456;28;19928;-92
2023/03/11 01:31:05;;;;;;;;;;;-0.90;99.90;;;;;;5065139;28;19924;-94
2023/03/11 01:33:31;;;;;;;;;;;-3.50;99.90;;;;;;5043497;28;19924;-92
2023/03/11 01:35:56;;;;;;;;;;;1.60;99.90;;;;;;5053930;28;19943;-92
2023/03/11 01:38:25;;;;;;;;;;;-0.70;99.90;;;;;;5062820;28;19962;-92
2023/03/11 01:40:52;;;;;;;;;;;-3.10;99.90;;;;;;5049798;28;19931;-93
2023/03/11 01:43:39;;;;;;;;;;;-0.20;99.90;;;;;;5070321;28;19924;-93
2023/03/11 01:46:22;;;;;;;;;;;-1.00;99.90;;;;;;5045192;28;19925;-93
2023/03/11 01:48:49;;;;;;;;;;;-1.00;99.90;;;;;;5062112;28;19924;-92
2023/03/11 01:51:48;;;;;;;;;;;-1.00;99.90;;;;;;5062161;28;19924;-93
2023/03/11 01:54:24;;;;;;;;;;;-1.10;99.90;;;;;;4991769;28;19922;-92
2023/03/11 01:56:51;;;;;;;;;;;-1.10;99.90;;;;;;4999426;28;19921;-93
2023/03/11 01:59:30;;;;;;;;;;;0.10;99.90;;;;;;5043866;28;19931;-92
2023/03/11 02:02:13;;;;;;;;;;;-3.50;99.90;;;;;;5071704;28;19931;-92
2023/03/11 02:04:39;;;;;;;;;;;-1.20;99.90;;;;;;5076490;28;19928;-92
2023/03/11 02:07:06;;;;;;;;;;;0.10;99.90;;;;;;5069689;28;19931;-93
2023/03/11 02:09:31;;;;;;;;;;;-0.80;99.90;;;;;;5072688;28;20015;-93
2023/03/11 02:11:57;;;;;;;;;;;1.20;99.90;;;;;;5070649;28;19932;-94
2023/03/11 02:14:23;;;;;;;;;;;-0.70;99.90;;;;;;5064608;28;19963;-92
2023/03/11 02:16:49;;;;;;;;;;;-1.50;99.90;;;;;;5067020;28;19932;-93
2023/03/11 02:19:33;;;;;;;;;;;-0.80;99.90;;;;;;5054095;28;19924;-93
2023/03/11 02:21:59;;;;;;;;;;;-0.10;99.90;;;;;;5067187;28;19928;-93
2023/03/11 02:24:44;;;;;;;;;;;-1.40;99.90;;;;;;5059939;28;20355;-93
2023/03/11 02:27:13;;;;;;;;;;;-1.60;99.90;;;;;;5079364;28;20300;-93
2023/03/11 02:29:43;;;;;;;;;;;-3.50;99.90;;;;;;5072198;28;20436;-93
2023/03/11 02:32:09;;;;;;;;;;;-0.80;99.90;;;;;;5053421;28;19971;-92
2023/03/11 02:34:39;;;;;;;;;;;-1.50;99.90;;;;;;5060318;28;20225;-94
2023/03/11 02:37:09;;;;;;;;;;;-1.80;99.90;;;;;;5068842;28;19987;-92
2023/03/11 02:39:36;;;;;;;;;;;-1.80;99.90;;;;;;5071794;28;20326;-93
2023/03/11 02:42:25;;;;;;;;;;;-1.20;99.90;;;;;;5069518;28;20443;-93
2023/03/11 02:45:06;;;;;;;;;;;1.30;99.90;;;;;;5063891;28;19945;-92
2023/03/11 02:47:33;;;;;;;;;;;-2.00;99.90;;;;;;5070153;28;19931;-94
2023/03/11 02:49:59;;;;;;;;;;;-2.30;99.90;;;;;;5070777;28;19932;-92
2023/03/11 02:52:29;;;;;;;;;;;-1.90;99.90;;;;;;5084387;28;19931;-92
2023/03/11 02:54:58;;;;;;;;;;;-1.90;99.90;;;;;;5070764;28;19924;-92
2023/03/11 02:57:23;;;;;;;;;;;0.10;99.90;;;;;;5077744;28;19924;-94
2023/03/11 02:59:49;;;;;;;;;;;-1.80;99.90;;;;;;5052574;28;19940;-94
2023/03/11 03:02:15;;;;;;;;;;;0.30;99.90;;;;;;5047783;28;19966;-92
2023/03/11 03:04:40;;;;;;;;;;;-1.80;99.90;;;;;;5039481;28;19925;-93
2023/03/11 03:07:09;;;;;;;;;;;-1.40;99.90;;;;;;5046352;28;19924;-92
2023/03/11 03:09:35;;;;;;;;;;;-2.30;99.90;;;;;;5030288;28;19925;-92
2023/03/11 03:12:04;;;;;;;;;;;-1.70;99.90;;;;;;5041212;28;19925;-92
2023/03/11 03:14:32;;;;;;;;;;;0.50;99.90;;;;;;5064808;28;19967;-92
2023/03/11 03:16:58;;;;;;;;;;;-0.50;99.90;;;;;;5059488;28;19928;-92
2023/03/11 03:19:26;;;;;;;;;;;0.00;99.90;;;;;;5056662;28;19986;-92
2023/03/11 03:21:52;;;;;;;;;;;-2.30;99.90;;;;;;5030250;28;19925;-91
2023/03/11 03:24:18;;;;;;;;;;;-0.20;99.90;;;;;;5062433;28;19929;-93
2023/03/11 03:26:43;;;;;;;;;;;-5.20;99.90;;;;;;5046839;28;19925;-92
2023/03/11 03:29:09;;;;;;;;;;;0.70;99.90;;;;;;5046331;28;19925;-93
2023/03/11 03:31:37;;;;;;;;;;;-2.40;99.90;;;;;;5030320;28;19947;-94
2023/03/11 03:34:03;;;;;;;;;;;-1.70;99.90;;;;;;5046006;28;19924;-93
2023/03/11 03:36:29;;;;;;;;;;;-2.70;99.90;;;;;;5049726;28;19947;-93
2023/03/11 03:38:55;;;;;;;;;;;0.00;99.90;;;;;;5045041;28;19925;-92
2023/03/11 03:41:23;;;;;;;;;;;-2.10;99.90;;;;;;5045704;28;19929;-93
2023/03/11 03:43:49;;;;;;;;;;;-2.00;99.90;;;;;;5029149;28;19925;-92
2023/03/11 03:46:15;;;;;;;;;;;-2.50;99.90;;;;;;5040871;28;19967;-93
2023/03/11 03:48:41;;;;;;;;;;;-2.90;99.90;;;;;;5044576;28;19924;-93
2023/03/11 03:51:16;;;;;;;;;;;-1.10;99.90;;;;;;5046145;28;19994;-92
2023/03/11 03:53:42;;;;;;;;;;;-3.00;99.90;;;;;;5030042;28;19926;-93
2023/03/11 03:56:09;;;;;;;;;;;-2.70;99.90;;;;;;5061955;28;19935;-93
2023/03/11 03:58:35;;;;;;;;;;;-3.80;99.90;;;;;;5045348;28;19925;-92
2023/03/11 04:01:00;;;;;;;;;;;-2.00;99.90;;;;;;5046405;28;20021;-93
2023/03/11 04:03:34;;;;;;;;;;;-0.50;99.90;;;;;;5044201;28;19929;-92
2023/03/11 04:06:20;;;;;;;;;;;-3.00;99.90;;;;;;5061470;28;19950;-92
2023/03/11 04:08:46;;;;;;;;;;;-3.20;99.90;;;;;;5063168;28;19924;-93
2023/03/11 04:11:11;;;;;;;;;;;-2.80;99.90;;;;;;5067649;28;20019;-93
2023/03/11 04:13:43;;;;;;;;;;;-3.30;99.90;;;;;;5068176;28;19923;-93
2023/03/11 04:16:11;;;;;;;;;;;-3.20;99.90;;;;;;5050831;28;19928;-93
2023/03/11 04:18:40;;;;;;;;;;;-2.10;99.90;;;;;;5068177;28;19924;-94
2023/03/11 04:21:06;;;;;;;;;;;-4.50;99.90;;;;;;5082189;28;19925;-93
2023/03/11 04:23:32;;;;;;;;;;;-3.20;99.90;;;;;;5055954;28;19927;-92
2023/03/11 04:25:58;;;;;;;;;;;-3.30;99.90;;;;;;5070050;28;19924;-93
2023/03/11 04:28:23;;;;;;;;;;;-0.20;99.90;;;;;;5068089;28;19963;-94
2023/03/11 04:30:49;;;;;;;;;;;-3.30;99.90;;;;;;5069866;28;19982;-92
2023/03/11 04:33:21;;;;;;;;;;;-2.80;99.90;;;;;;5061055;28;19925;-91
2023/03/11 04:35:46;;;;;;;;;;;-2.00;99.90;;;;;;5042530;28;19924;-92
2023/03/11 04:38:12;;;;;;;;;;;-3.60;99.90;;;;;;5068763;28;19984;-92
2023/03/11 04:40:38;;;;;;;;;;;-3.70;99.90;;;;;;5053490;28;19928;-92
2023/03/11 04:43:04;;;;;;;;;;;-5.70;99.90;;;;;;5053777;28;20013;-92
2023/03/11 04:45:30;;;;;;;;;;;-2.50;99.90;;;;;;5069363;28;19924;-94
2023/03/11 04:47:55;;;;;;;;;;;-4.30;99.90;;;;;;5048117;28;20310;-92
2023/03/11 04:50:24;;;;;;;;;;;-3.70;99.90;;;;;;5069029;28;19924;-93
2023/03/11 04:52:49;;;;;;;;;;;-3.80;99.90;;;;;;5042171;28;19931;-91
2023/03/11 04:55:18;;;;;;;;;;;-3.80;99.90;;;;;;5055457;28;19924;-93
2023/03/11 04:57:44;;;;;;;;;;;-3.40;99.90;;;;;;5050278;28;19931;-92
2023/03/11 05:00:11;;;;;;;;;;;-3.90;99.90;;;;;;5068067;28;20014;-94
2023/03/11 05:02:40;;;;;;;;;;;-3.70;99.90;;;;;;5068500;28;19924;-92
2023/03/11 05:05:05;;;;;;;;;;;-4.50;99.90;;;;;;5054508;28;20001;-92
2023/03/11 05:07:31;;;;;;;;;;;-6.00;99.90;;;;;;5026803;28;20011;-92
2023/03/11 05:10:00;;;;;;;;;;;-3.30;99.90;;;;;;5045482;28;19924;-91
2023/03/11 05:12:25;;;;;;;;;;;-3.90;99.90;;;;;;5036132;28;20293;-92
2023/03/11 05:14:54;;;;;;;;;;;-3.00;99.90;;;;;;5055588;28;19959;-91
2023/03/11 05:17:20;;;;;;;;;;;-4.00;99.90;;;;;;5025993;28;19925;-92
2023/03/11 05:19:48;;;;;;;;;;;-3.60;99.90;;;;;;5044593;28;19946;-91
2023/03/11 05:22:14;;;;;;;;;;;-5.70;99.90;;;;;;5060433;28;19932;-91
2023/03/11 05:24:43;;;;;;;;;;;-4.00;99.90;;;;;;5041618;28;19932;-93
2023/03/11 05:27:08;;;;;;;;;;;-2.50;99.90;;;;;;5056201;28;20024;-92
2023/03/11 05:29:34;;;;;;;;;;;-3.40;99.90;;;;;;5046779;28;19925;-93
2023/03/11 05:32:00;;;;;;;;;;;-4.10;99.90;;;;;;5037606;28;19932;-91
2023/03/11 05:34:28;;;;;;;;;;;-4.10;99.90;;;;;;5045906;28;19970;-92
2023/03/11 05:36:57;;;;;;;;;;;-3.50;99.90;;;;;;5049109;28;19924;-92
2023/03/11 05:39:26;;;;;;;;;;;-0.70;99.90;;;;;;5047536;28;19978;-92
2023/03/11 05:41:55;;;;;;;;;;;-4.20;99.90;;;;;;5046874;28;19948;-90
2023/03/11 05:44:24;;;;;;;;;;;-4.20;99.90;;;;;;5047822;28;19925;-93
2023/03/11 05:46:49;;;;;;;;;;;-3.90;99.90;;;;;;5049457;28;19963;-92
2023/03/11 05:49:15;;;;;;;;;;;-4.20;99.90;;;;;;5047359;28;19924;-92
2023/03/11 05:51:44;;;;;;;;;;;-4.20;99.90;;;;;;5049562;28;19925;-91
2023/03/11 05:54:13;;;;;;;;;;;-4.20;99.90;;;;;;5049417;28;19980;-90
2023/03/11 05:56:43;;;;;;;;;;;-5.80;99.90;;;;;;5048379;28;19925;-92
2023/03/11 05:59:18;;;;;;;;;;;-4.20;99.90;;;;;;5051667;28;19929;-90
2023/03/11 06:01:44;;;;;;;;;;;-0.50;99.90;;;;;;5044875;28;19925;-91
2023/03/11 06:04:11;;;;;;;;;;;-4.30;99.90;;;;;;5047545;28;20477;-92
2023/03/11 06:06:40;;;;;;;;;;;-4.20;99.90;;;;;;5051734;28;19971;-91
2023/03/11 06:09:15;;;;;;;;;;;-5.40;99.90;;;;;;5063518;28;20002;-91
2023/03/11 06:11:47;;;;;;;;;;;-5.50;99.90;;;;;;5046707;28;20014;-92
2023/03/11 06:14:15;;;;;;;;;;;-3.80;99.90;;;;;;5065357;28;19925;-91
2023/03/11 06:16:41;;;;;;;;;;;-4.10;99.90;;;;;;5067573;28;19984;-90
2023/03/11 06:19:06;;;;;;;;;;;-1.80;99.90;;;;;;5069216;28;19932;-91
2023/03/11 06:21:32;;;;;;;;;;;-4.10;99.90;;;;;;5050027;28;19925;-91
2023/03/11 06:23:58;;;;;;;;;;;-0.80;99.90;;;;;;5047147;28;19928;-91
2023/03/11 06:26:26;;;;;;;;;;;-4.10;99.90;;;;;;5066065;28;19929;-90
2023/03/11 06:28:55;;;;;;;;;;;-2.90;99.90;;;;;;5045218;28;19924;-90
2023/03/11 06:31:25;;;;;;;;;;;-4.00;99.90;;;;;;5047377;28;19929;-89
2023/03/11 06:33:55;;;;;;;;;;;-4.00;99.90;;;;;;5065315;28;19932;-91
2023/03/11 06:36:20;;;;;;;;;;;-3.60;99.90;;;;;;5062423;28;20004;-92
2023/03/11 06:38:53;;;;;;;;;;;-3.90;99.90;;;;;;5062216;28;19925;-93
2023/03/11 06:41:19;;;;;;;;;;;-3.90;99.90;;;;;;5064430;28;19928;-91
2023/03/11 06:43:51;;;;;;;;;;;-0.30;99.90;;;;;;5056328;28;20417;-90
2023/03/11 06:46:17;;;;;;;;;;;-2.90;99.90;;;;;;5058485;28;19932;-92
2023/03/11 06:48:44;;;;;;;;;;;-3.90;99.90;;;;;;5053932;28;19925;-91
2023/03/11 06:51:13;;;;;;;;;;;-1.20;99.90;;;;;;5065012;28;19931;-91
2023/03/11 06:53:39;;;;;;;;;;;-3.70;99.90;;;;;;5035642;28;19939;-90
2023/03/11 06:56:09;;;;;;;;;;;-2.80;99.90;;;;;;5051959;28;19925;-91
2023/03/11 06:58:35;;;;;;;;;;;-1.00;99.90;;;;;;5063424;28;19982;-90
2023/03/11 07:01:02;;;;;;;;;;;-0.60;99.90;;;;;;5063940;28;19924;-89
2023/03/11 07:03:27;;;;;;;;;;;-3.40;99.90;;;;;;5064412;28;19932;-90
2023/03/11 07:05:55;;;;;;;;;;;-3.30;99.90;;;;;;5034004;28;19924;-90
2023/03/11 07:08:21;;;;;;;;;;;-3.60;99.90;;;;;;5044766;28;19925;-91
2023/03/11 07:10:57;;;;;;;;;;;-3.60;99.90;;;;;;5045711;28;20253;-90
2023/03/11 07:13:23;;;;;;;;;;;-2.20;99.90;;;;;;5050896;28;19992;-91
2023/03/11 07:15:49;;;;;;;;;;;-1.40;99.90;;;;;;5044683;28;20015;-91
2023/03/11 07:18:17;;;;;;;;;;;-1.50;99.90;;;;;;5045732;28;19924;-90
2023/03/11 07:20:46;;;;;;;;;;;-3.00;99.90;;;;;;5016812;28;19974;-91
2023/03/11 07:23:12;;;;;;;;;;;-2.20;99.90;;;;;;5032675;28;19925;-90
2023/03/11 07:25:45;;;;;;;;;;;-3.10;99.90;;;;;;5042756;28;19931;-91
2023/03/11 07:28:10;;;;;;;;;;;-3.00;99.90;;;;;;5045461;28;20299;-91
2023/03/11 07:30:37;;;;;;;;;;;-1.70;99.90;;;;;;5039075;28;19997;-91
2023/03/11 07:33:03;;;;;;;;;;;-2.90;99.90;;;;;;5044748;28;19988;-91
2023/03/11 07:35:34;;;;;;;;;;;-2.90;99.90;;;;;;5026355;28;19936;-91
2023/03/11 07:37:59;;;;;;;;;;;-5.20;99.90;;;;;;5043907;28;20299;-90
2023/03/11 07:40:28;;;;;;;;;;;-0.30;99.90;;;;;;5042613;28;19932;-91
2023/03/11 07:42:53;;;;;;;;;;;-2.80;99.90;;;;;;5034781;28;19925;-91
2023/03/11 07:45:19;;;;;;;;;;;-2.70;99.90;;;;;;5026539;28;20023;-91
2023/03/11 07:47:47;;;;;;;;;;;-2.30;99.90;;;;;;5026526;28;20300;-91
2023/03/11 07:50:13;;;;;;;;;;;-4.80;99.90;;;;;;5040320;28;19925;-90
2023/03/11 07:52:42;;;;;;;;;;;-2.50;99.90;;;;;;5031045;28;19925;-92
2023/03/11 07:55:08;;;;;;;;;;;-2.60;99.90;;;;;;5026896;28;19936;-92
2023/03/11 07:57:34;;;;;;;;;;;-2.50;99.90;;;;;;5027236;28;19924;-91
2023/03/11 08:00:00;;;;;;;;;;;-1.80;99.90;;;;;;5043423;28;19925;-91
2023/03/11 08:02:25;;;;;;;;;;;-0.80;99.90;;;;;;5041105;28;19932;-91
2023/03/11 08:04:52;;;;;;;;;;;-2.30;99.90;;;;;;5048644;28;19947;-90
2023/03/11 08:07:19;;;;;;;;;;;-4.70;99.90;;;;;;5048740;28;19928;-90
2023/03/11 08:09:45;;;;;;;;;;;0.70;99.90;;;;;;5061483;28;19991;-90
2023/03/11 08:12:11;;;;;;;;;;;-2.00;99.90;;;;;;5063211;28;19924;-92
2023/03/11 08:14:40;;;;;;;;;;;-1.20;99.90;;;;;;5071488;28;19924;-91
2023/03/11 08:17:05;;;;;;;;;;;0.30;99.90;;;;;;5050085;28;19946;-92
2023/03/11 08:19:31;;;;;;;;;;;-2.00;99.90;;;;;;5061344;28;19924;-90
2023/03/11 08:21:57;;;;;;;;;;;-1.80;99.90;;;;;;5047685;28;19960;-91
2023/03/11 08:24:28;;;;;;;;;;;-1.70;99.90;;;;;;5058805;28;19932;-91
2023/03/11 08:26:55;;;;;;;;;;;1.10;99.90;;;;;;5064059;28;19924;-90
2023/03/11 08:29:22;;;;;;;;;;;-1.70;99.90;;;;;;5063432;28;19945;-90
2023/03/11 08:31:47;;;;;;;;;;;1.00;99.90;;;;;;5069128;28;19924;-90
2023/03/11 08:34:13;;;;;;;;;;;-1.60;99.90;;;;;;5065746;28;19971;-90
2023/03/11 08:36:39;;;;;;;;;;;-0.60;99.90;;;;;;5064006;28;19923;-89
2023/03/11 08:39:05;;;;;;;;;;;-1.40;99.90;;;;;;5049313;28;19924;-90
2023/03/11 08:41:31;;;;;;;;;;;-1.30;99.90;;;;;;5064629;28;20390;-92
2023/03/11 08:43:57;;;;;;;;;;;-0.50;99.90;;;;;;5050050;28;19924;-92
2023/03/11 08:46:33;;;;;;;;;;;0.20;99.90;;;;;;5049816;28;20009;-93
2023/03/11 08:48:59;;;;;;;;;;;0.00;99.90;;;;;;5063297;28;20715;-92
2023/03/11 08:51:29;;;;;;;;;;;-0.60;99.90;;;;;;5063741;28;19946;-91
2023/03/11 08:53:54;;;;;;;;;;;-0.80;99.90;;;;;;5075108;28;19958;-92
2023/03/11 08:56:20;;;;;;;;;;;1.50;99.90;;;;;;5065790;28;19928;-91
2023/03/11 08:58:49;;;;;;;;;;;1.00;99.90;;;;;;5065933;28;20276;-91
2023/03/11 09:01:19;;;;;;;;;;;-0.70;99.90;;;;;;5052170;28;20014;-91
2023/03/11 09:03:48;;;;;;;;;;;-0.70;99.90;;;;;;5048873;28;19935;-90
2023/03/11 09:06:17;;;;;;;;;;;-0.60;99.90;;;;;;5076575;28;19943;-92
2023/03/11 09:08:43;;;;;;;;;;;-0.40;99.90;;;;;;5047461;28;19924;-91
2023/03/11 09:11:09;;;;;;;;;;;2.40;99.90;;;;;;5068424;28;19924;-92
2023/03/11 09:13:35;;;;;;;;;;;-0.20;99.90;;;;;;5064562;28;19957;-90
2023/03/11 09:16:00;;;;;;;;;;;-0.10;99.90;;;;;;5050517;28;19931;-91
2023/03/11 09:18:28;;;;;;;;;;;0.90;99.90;;;;;;5069143;28;19931;-90
2023/03/11 09:20:57;;;;;;;;;;;0.00;99.90;;;;;;5067178;28;19973;-90
2023/03/11 09:23:25;;;;;;;;;;;0.10;99.90;;;;;;5071117;28;19924;-90
2023/03/11 09:25:51;;;;;;;;;;;1.30;99.90;;;;;;5051429;28;19959;-90
2023/03/11 09:28:17;;;;;;;;;;;0.60;99.90;;;;;;5096075;28;19970;-90
2023/03/11 09:30:42;;;;;;;;;;;0.40;99.90;;;;;;5066027;28;19924;-91
2023/03/11 09:33:08;;;;;;;;;;;1.90;99.90;;;;;;5045883;28;19935;-91
2023/03/11 09:35:33;;;;;;;;;;;0.70;99.90;;;;;;5040455;28;19964;-91
2023/03/11 09:37:59;;;;;;;;;;;0.60;99.90;;;;;;5055141;28;20010;-90
2023/03/11 09:40:26;;;;;;;;;;;0.60;99.90;;;;;;5072118;28;19924;-91
2023/03/11 09:43:03;;;;;;;;;;;0.80;99.90;;;;;;5078324;28;19920;-91
2023/03/11 09:45:39;;;;;;;;;;;0.70;99.90;;;;;;5084639;28;19932;-92
2023/03/11 09:48:19;;;;;;;;;;;0.80;99.90;;;;;;5069403;28;19946;-91
2023/03/11 09:50:57;;;;;;;;;;;0.90;99.90;;;;;;5081169;28;20019;-91
2023/03/11 09:53:32;;;;;;;;;;;1.00;99.90;;;;;;5073810;28;20303;-92
2023/03/11 09:55:58;;;;;;;;;;;1.70;99.90;;;;;;5065119;28;19924;-91
2023/03/11 09:58:24;;;;;;;;;;;1.20;99.90;;;;;;5082791;28;19924;-91
2023/03/11 10:00:51;;;;;;;;;;;1.20;99.90;;;;;;5062982;28;19924;-92
2023/03/11 10:03:23;;;;;;;;;;;1.30;99.90;;;;;;5075684;28;19971;-92
2023/03/11 10:05:50;;;;;;;;;;;1.40;99.90;;;;;;5065600;28;19975;-91
2023/03/11 10:08:51;;;;;;;;;;;1.50;99.90;;;;;;5064690;28;19923;-91
2023/03/11 10:11:28;;;;;;;;;;;1.60;99.90;;;;;;4988547;28;19925;-91
2023/03/11 10:14:15;;;;;;;;;;;1.50;99.90;;;;;;5058025;28;19924;-92
2023/03/11 10:17:00;;;;;;;;;;;1.70;99.90;;;;;;5069941;28;19924;-91
2023/03/11 10:19:35;;;;;;;;;;;1.80;99.90;;;;;;5069011;28;19939;-92
2023/03/11 10:22:19;;;;;;;;;;;1.90;99.90;;;;;;5071008;28;19924;-92
2023/03/11 10:25:04;;;;;;;;;;;4.50;99.90;;;;;;5077440;28;19928;-91
2023/03/11 10:27:45;;;;;;;;;;;2.00;99.90;;;;;;5060263;28;19928;-94
2023/03/11 10:30:29;;;;;;;;;;;2.10;99.90;;;;;;5061336;28;19946;-92
2023/03/11 10:33:02;;;;;;;;;;;2.10;99.90;;;;;;5081322;28;19924;-92
2023/03/11 10:35:41;;;;;;;;;;;2.20;99.90;;;;;;5065937;28;19924;-92
2023/03/11 10:38:07;;;;;;;;;;;2.30;99.90;;;;;;5076363;28;19963;-92
2023/03/11 10:40:39;;;;;;;;;;;2.40;99.90;;;;;;5069287;28;19946;-93
2023/03/11 10:43:17;;;;;;;;;;;2.40;99.90;;;;;;5069369;28;19931;-92
2023/03/11 10:45:44;;;;;;;;;;;2.50;99.90;;;;;;5084450;28;19946;-92
2023/03/11 10:48:14;;;;;;;;;;;2.50;99.90;;;;;;5077489;28;19935;-90
2023/03/11 10:50:59;;;;;;;;;;;2.60;99.90;;;;;;5093538;28;19924;-90
2023/03/11 10:53:28;;;;;;;;;;;2.80;99.90;;;;;;5087021;28;19924;-90
2023/03/11 10:55:54;;;;;;;;;;;2.70;99.90;;;;;;5078221;28;19951;-91
2023/03/11 10:58:22;;;;;;;;;;;2.90;99.90;;;;;;5084338;28;19920;-91
2023/03/11 11:01:00;;;;;;;;;;;3.00;99.90;;;;;;5078733;28;20308;-92
2023/03/11 11:03:26;;;;;;;;;;;3.10;99.90;;;;;;5080099;28;19924;-91
2023/03/11 11:06:02;;;;;;;;;;;3.20;99.90;;;;;;5042343;28;19946;-90
2023/03/11 11:08:29;;;;;;;;;;;3.30;99.90;;;;;;5045404;28;19968;-93
2023/03/11 11:10:56;;;;;;;;;;;3.80;99.90;;;;;;5062719;28;19924;-93
2023/03/11 11:13:26;;;;;;;;;;;2.30;99.90;;;;;;5046258;28;19925;-91
2023/03/11 11:15:59;;;;;;;;;;;3.40;99.90;;;;;;5048375;28;19968;-93
2023/03/11 11:18:36;;;;;;;;;;;3.40;99.90;;;;;;5045637;28;20391;-92
2023/03/11 11:21:07;;;;;;;;;;;3.30;99.90;;;;;;5042318;28;19924;-93
2023/03/11 11:23:52;;;;;;;;;;;3.30;99.90;;;;;;5033412;28;20652;-92
2023/03/11 11:26:24;;;;;;;;;;;3.20;99.90;;;;;;5033750;28;19968;-93
2023/03/11 11:29:08;;;;;;;;;;;3.30;99.90;;;;;;5038652;28;19951;-94
2023/03/11 11:31:38;;;;;;;;;;;5.90;99.90;;;;;;5036059;28;19925;-95
2023/03/11 11:34:21;;;;;;;;;;;3.30;99.90;;;;;;5043347;28;19935;-93
2023/03/11 11:36:50;;;;;;;;;;;3.80;99.90;;;;;;5042565;28;19956;-95
2023/03/11 11:39:27;;;;;;;;;;;3.80;99.90;;;;;;5049537;28;19925;-95
2023/03/11 11:41:54;;;;;;;;;;;6.20;99.90;;;;;;5042466;28;19925;-95
2023/03/11 11:44:21;;;;;;;;;;;3.70;99.90;;;;;;5035382;28;20011;-94
2023/03/11 11:46:58;;;;;;;;;;;3.90;99.90;;;;;;5045946;28;19929;-95
2023/03/11 11:49:26;;;;;;;;;;;4.10;99.90;;;;;;5041776;28;19924;-94
2023/03/11 11:52:04;;;;;;;;;;;3.70;99.90;;;;;;5034970;28;19988;-95
2023/03/11 11:54:33;;;;;;;;;;;4.20;99.90;;;;;;5046296;28;19935;-94
2023/03/11 11:57:00;;;;;;;;;;;3.80;99.90;;;;;;5037501;28;19935;-94
2023/03/11 11:59:26;;;;;;;;;;;3.80;99.90;;;;;;5026857;28;19932;-94
2023/03/11 12:02:15;;;;;;;;;;;3.90;99.90;;;;;;5043427;28;19980;-95
2023/03/11 12:04:49;;;;;;;;;;;3.90;99.90;;;;;;5053364;28;19925;-94
2023/03/11 12:07:14;;;;;;;;;;;4.50;99.90;;;;;;5042997;28;19975;-94
2023/03/11 12:09:49;;;;;;;;;;;6.90;99.90;;;;;;5042141;28;19924;-93
2023/03/11 12:12:22;;;;;;;;;;;4.30;99.90;;;;;;5054459;28;20015;-94
2023/03/11 12:15:06;;;;;;;;;;;4.40;99.90;;;;;;5054852;28;19921;-95
2023/03/11 12:17:36;;;;;;;;;;;4.80;99.90;;;;;;5054359;28;20242;-94
2023/03/11 12:20:07;;;;;;;;;;;4.40;99.90;;;;;;5043040;28;19925;-95
2023/03/11 12:22:39;;;;;;;;;;;5.80;99.90;;;;;;5050842;28;20042;-94
2023/03/11 12:25:08;;;;;;;;;;;4.60;99.90;;;;;;5052426;28;19929;-96
2023/03/11 12:27:49;;;;;;;;;;;4.60;99.90;;;;;;5045151;28;19984;-94
2023/03/11 12:30:42;;;;;;;;;;;4.80;99.90;;;;;;5043028;28;19968;-95
2023/03/11 12:33:17;;;;;;;;;;;4.60;99.90;;;;;;5007406;28;20034;-94
2023/03/11 12:35:48;;;;;;;;;;;5.10;99.90;;;;;;5053660;28;19925;-93
2023/03/11 12:38:28;;;;;;;;;;;4.80;99.90;;;;;;5043559;28;19929;-96
2023/03/11 12:40:54;;;;;;;;;;;4.70;99.90;;;;;;5044577;28;19963;-96
2023/03/11 12:43:28;;;;;;;;;;;4.80;99.90;;;;;;5045080;28;19925;-94
2023/03/11 12:45:56;;;;;;;;;;;4.90;99.90;;;;;;5043578;28;19955;-94
2023/03/11 12:48:34;;;;;;;;;;;4.70;99.90;;;;;;5037205;28;19945;-94
2023/03/11 12:50:59;;;;;;;;;;;2.90;99.90;;;;;;5043201;28;20419;-94
2023/03/11 12:53:41;;;;;;;;;;;4.80;99.90;;;;;;5040745;28;19925;-94
2023/03/11 12:56:24;;;;;;;;;;;4.90;99.90;;;;;;5042519;28;19964;-94
2023/03/11 12:58:56;;;;;;;;;;;4.80;99.90;;;;;;5037168;28;19970;-92
2023/03/11 13:01:21;;;;;;;;;;;4.90;99.90;;;;;;5044081;28;19963;-95
2023/03/11 13:03:52;;;;;;;;;;;4.90;99.90;;;;;;5038877;28;19925;-95
2023/03/11 13:06:41;;;;;;;;;;;5.20;99.90;;;;;;5062160;28;19932;-92
2023/03/11 13:09:15;;;;;;;;;;;5.10;99.90;;;;;;5077287;28;19924;-95
2023/03/11 13:11:42;;;;;;;;;;;5.10;99.90;;;;;;5052617;28;19967;-92
2023/03/11 13:14:17;;;;;;;;;;;5.30;99.90;;;;;;5061715;28;19925;-92
2023/03/11 13:16:43;;;;;;;;;;;5.70;99.90;;;;;;5072023;28;20016;-94
2023/03/11 13:19:27;;;;;;;;;;;5.40;99.90;;;;;;5062120;28;19929;-93
2023/03/11 13:21:53;;;;;;;;;;;5.30;99.90;;;;;;5063318;28;19974;-92
2023/03/11 13:24:24;;;;;;;;;;;5.30;99.90;;;;;;5075157;28;19925;-93
2023/03/11 13:26:59;;;;;;;;;;;5.30;99.90;;;;;;5061817;28;19929;-92
2023/03/11 13:29:40;;;;;;;;;;;5.30;99.90;;;;;;5066126;28;19947;-91
2023/03/11 13:32:24;;;;;;;;;;;5.30;99.90;;;;;;5071537;28;19920;-92
2023/03/11 13:35:07;;;;;;;;;;;5.10;99.90;;;;;;5073791;28;19924;-93
2023/03/11 13:37:48;;;;;;;;;;;3.30;99.90;;;;;;5060659;28;19925;-92
2023/03/11 13:40:23;;;;;;;;;;;5.30;99.90;;;;;;5073727;28;19968;-91
2023/03/11 13:42:54;;;;;;;;;;;5.90;99.90;;;;;;5059468;28;19950;-92
2023/03/11 13:45:40;;;;;;;;;;;5.60;99.90;;;;;;5080015;28;19924;-93
2023/03/11 13:48:28;;;;;;;;;;;5.60;99.90;;;;;;5078463;28;19931;-92
2023/03/11 13:51:14;;;;;;;;;;;4.60;99.90;;;;;;5065883;28;19961;-94
2023/03/11 13:53:46;;;;;;;;;;;6.00;99.90;;;;;;5065147;28;20019;-91
2023/03/11 13:56:26;;;;;;;;;;;5.90;99.90;;;;;;5065161;28;19935;-94
2023/03/11 13:58:51;;;;;;;;;;;5.10;99.90;;;;;;5066251;28;19973;-93
2023/03/11 14:01:17;;;;;;;;;;;6.10;99.90;;;;;;5058153;28;19928;-94
2023/03/11 14:03:46;;;;;;;;;;;6.20;99.90;;;;;;5045471;28;20058;-95
2023/03/11 14:06:23;;;;;;;;;;;6.10;99.90;;;;;;5064624;28;19928;-95
2023/03/11 14:09:10;;;;;;;;;;;7.10;99.90;;;;;;5056672;28;19929;-96
2023/03/11 14:11:47;;;;;;;;;;;8.40;99.90;;;;;;5067271;28;19924;-96
2023/03/11 14:14:30;;;;;;;;;;;6.30;99.90;;;;;;5055632;28;19925;-95
2023/03/11 14:16:56;;;;;;;;;;;6.40;99.90;;;;;;5058461;28;20046;-96
2023/03/11 14:19:22;;;;;;;;;;;6.20;99.90;;;;;;5072950;28;19925;-95
2023/03/11 14:22:08;;;;;;;;;;;6.10;99.90;;;;;;5045855;28;19947;-96
2023/03/11 14:24:40;;;;;;;;;;;6.90;99.90;;;;;;5059970;28;19925;-95
2023/03/11 14:27:07;;;;;;;;;;;5.20;99.90;;;;;;5055685;28;20000;-95
2023/03/11 14:29:42;;;;;;;;;;;6.60;99.90;;;;;;5045621;28;19975;-94
2023/03/11 14:32:27;;;;;;;;;;;6.40;99.90;;;;;;5056543;28;20487;-95
2023/03/11 14:34:59;;;;;;;;;;;6.70;99.90;;;;;;5063309;28;20426;-95
2023/03/11 14:37:48;;;;;;;;;;;8.40;99.90;;;;;;5065372;28;19925;-96
2023/03/11 14:40:20;;;;;;;;;;;5.30;99.90;;;;;;5037891;28;19932;-95